createdAt,value
2022-08-12T00:01:05.714Z,4.30
2022-08-12T00:03:52.977Z,4.10
2022-08-12T00:06:42.858Z,3.83
2022-08-12T00:09:28.948Z,3.80
2022-08-12T00:12:14.831Z,3.70
2022-08-12T00:15:02.960Z,3.50
2022-08-12T00:17:49.342Z,3.60
2022-08-12T00:20:35.137Z,3.37
2022-08-12T00:23:21.482Z,3.33
2022-08-12T00:26:22.930Z,3.10
2022-08-12T00:29:13.903Z,2.73
2022-08-12T00:32:01.455Z,3.07
2022-08-12T00:34:50.077Z,2.73
2022-08-12T00:37:40.524Z,3.47
2022-08-12T00:40:30.681Z,3.17
2022-08-12T00:43:00.215Z,3.20
2022-08-12T00:45:47.555Z,3.43
2022-08-12T00:48:15.794Z,3.43
2022-08-12T00:50:43.398Z,3.50
2022-08-12T00:53:11.033Z,3.10
2022-08-12T00:55:46.664Z,3.30
2022-08-12T00:58:19.083Z,3.43
2022-08-12T01:00:46.351Z,4.27
2022-08-12T01:03:19.908Z,3.50
2022-08-12T01:06:08.079Z,3.47
2022-08-12T01:08:53.737Z,3.50
2022-08-12T01:11:32.518Z,3.43
2022-08-12T01:14:02.782Z,3.83
2022-08-12T01:16:30.122Z,4.13
2022-08-12T01:18:58.405Z,3.57
2022-08-12T01:21:28.020Z,4.20
2022-08-12T01:24:38.116Z,3.33
2022-08-12T01:27:08.207Z,4.07
2022-08-12T01:29:44.149Z,4.20
2022-08-12T01:32:15.182Z,3.17
2022-08-12T01:35:12.290Z,3.40
2022-08-12T01:38:05.678Z,3.30
2022-08-12T01:40:38.227Z,3.73
2022-08-12T01:43:17.757Z,4.10
2022-08-12T01:46:08.322Z,3.53
2022-08-12T01:49:07.572Z,4.00
2022-08-12T01:52:15.288Z,3.20
2022-08-12T01:54:49.783Z,3.40
2022-08-12T01:57:58.084Z,4.20
2022-08-12T02:00:44.970Z,3.90
2022-08-12T02:04:32.367Z,4.10
2022-08-12T02:07:51.104Z,4.17
2022-08-12T02:10:57.186Z,3.70
2022-08-12T02:13:48.418Z,5.67
2022-08-12T02:16:31.254Z,3.53
2022-08-12T02:19:23.434Z,3.57
2022-08-12T02:22:10.377Z,4.10
2022-08-12T02:24:40.382Z,3.20
2022-08-12T02:27:10.474Z,3.47
2022-08-12T02:29:38.877Z,3.70
2022-08-12T02:32:06.699Z,3.50
2022-08-12T02:34:35.406Z,4.73
2022-08-12T02:37:04.059Z,4.97
2022-08-12T02:39:34.292Z,3.80
2022-08-12T02:42:04.980Z,4.20
2022-08-12T02:44:40.434Z,4.53
2022-08-12T02:47:18.307Z,4.33
2022-08-12T02:49:59.128Z,4.10
2022-08-12T02:52:27.994Z,4.23
2022-08-12T02:55:02.362Z,4.10
2022-08-12T02:57:32.264Z,4.20
2022-08-12T03:00:03.158Z,3.77
2022-08-12T03:02:32.048Z,4.60
2022-08-12T03:05:03.561Z,3.80
2022-08-12T03:07:56.142Z,4.20
2022-08-12T03:10:37.380Z,4.30
2022-08-12T03:13:08.710Z,4.97
2022-08-12T03:15:36.348Z,4.47
2022-08-12T03:18:25.907Z,3.90
2022-08-12T03:20:58.823Z,4.40
2022-08-12T03:23:29.604Z,4.30
2022-08-12T03:26:01.948Z,4.37
2022-08-12T03:28:51.942Z,4.13
2022-08-12T03:31:38.506Z,4.40
2022-08-12T03:34:12.779Z,4.33
2022-08-12T03:36:42.622Z,4.83
2022-08-12T03:39:45.904Z,4.70
2022-08-12T03:42:25.725Z,4.80
2022-08-12T03:45:51.592Z,4.33
2022-08-12T03:48:39.708Z,4.57
2022-08-12T03:51:26.616Z,4.67
2022-08-12T03:54:13.154Z,4.57
2022-08-12T03:56:59.228Z,4.40
2022-08-12T03:59:44.953Z,5.20
2022-08-12T04:02:16.571Z,4.47
2022-08-12T04:04:49.381Z,4.10
2022-08-12T04:07:17.462Z,4.63
2022-08-12T04:09:47.144Z,4.67
2022-08-12T04:12:33.489Z,4.70
2022-08-12T04:15:02.097Z,3.80
2022-08-12T04:17:29.683Z,4.87
2022-08-12T04:19:59.071Z,4.67
2022-08-12T04:22:29.916Z,4.87
2022-08-12T04:25:01.619Z,4.77
2022-08-12T04:27:32.077Z,4.83
2022-08-12T04:30:29.423Z,3.90
2022-08-12T04:32:51.106Z,4.50
2022-08-12T04:35:19.986Z,4.20
2022-08-12T04:37:59.845Z,4.10
2022-08-12T04:40:31.641Z,4.80
2022-08-12T04:43:01.667Z,4.50
2022-08-12T04:45:31.231Z,5.47
2022-08-12T04:47:58.441Z,4.17
2022-08-12T04:50:33.907Z,4.30
2022-08-12T04:53:09.013Z,4.30
2022-08-12T04:55:39.411Z,4.80
2022-08-12T04:58:08.266Z,3.77
2022-08-12T05:00:38.131Z,3.70
2022-08-12T05:03:07.137Z,4.07
2022-08-12T05:05:36.538Z,4.50
2022-08-12T05:08:08.003Z,4.30
2022-08-12T05:10:35.600Z,3.70
2022-08-12T05:13:09.640Z,3.47
2022-08-12T05:16:03.767Z,3.27
2022-08-12T05:18:29.298Z,4.60
2022-08-12T05:20:59.360Z,3.10
2022-08-12T05:23:27.421Z,3.60
2022-08-12T05:25:57.282Z,4.00
2022-08-12T05:28:27.297Z,4.90
2022-08-12T05:30:56.014Z,3.60
2022-08-12T05:33:26.740Z,3.53
2022-08-12T05:35:53.959Z,3.63
2022-08-12T05:38:39.787Z,3.27
2022-08-12T05:41:19.311Z,3.50
2022-08-12T05:43:54.541Z,3.73
2022-08-12T05:46:23.636Z,3.20
2022-08-12T05:48:54.770Z,2.33
2022-08-12T05:51:28.084Z,2.70
2022-08-12T05:54:07.185Z,3.23
2022-08-12T05:56:36.763Z,2.80
2022-08-12T05:59:11.448Z,2.67
2022-08-12T06:02:10.635Z,2.63
2022-08-12T06:04:28.363Z,2.50
2022-08-12T06:06:55.324Z,2.80
2022-08-12T06:09:23.015Z,2.80
2022-08-12T06:12:05.002Z,2.13
2022-08-12T06:14:37.962Z,2.53
2022-08-12T06:17:09.245Z,2.60
2022-08-12T06:20:27.354Z,2.20
2022-08-12T06:22:26.980Z,1.73
2022-08-12T06:24:54.217Z,2.30
2022-08-12T06:27:22.050Z,2.60
2022-08-12T06:30:09.446Z,1.97
2022-08-12T06:32:42.825Z,1.90
2022-08-12T06:35:27.088Z,2.40
2022-08-12T06:38:00.442Z,1.60
2022-08-12T06:40:46.124Z,2.47
2022-08-12T06:43:14.364Z,2.23
2022-08-12T06:45:49.629Z,1.90
2022-08-12T06:48:17.506Z,2.23
2022-08-12T06:50:45.488Z,2.03
2022-08-12T06:53:13.003Z,1.80
2022-08-12T06:55:57.603Z,1.93
2022-08-12T06:58:31.137Z,1.80
2022-08-12T07:01:00.543Z,1.50
2022-08-12T07:03:29.382Z,1.60
2022-08-12T07:06:00.192Z,1.90
2022-08-12T07:08:32.845Z,2.30
2022-08-12T07:11:06.352Z,1.83
2022-08-12T07:14:11.177Z,1.87
2022-08-12T07:16:49.593Z,1.73
2022-08-12T07:19:17.685Z,2.07
2022-08-12T07:22:00.176Z,1.93
2022-08-12T07:24:29.882Z,1.60
2022-08-12T07:26:57.333Z,1.60
2022-08-12T07:29:57.914Z,1.80
2022-08-12T07:32:13.555Z,1.70
2022-08-12T07:34:43.565Z,1.73
2022-08-12T07:37:10.659Z,1.90
2022-08-12T07:39:50.800Z,1.90
2022-08-12T07:42:24.623Z,1.77
2022-08-12T07:44:53.957Z,1.80
2022-08-12T07:47:21.046Z,1.87
2022-08-12T07:50:05.721Z,1.70
2022-08-12T07:52:43.706Z,1.80
2022-08-12T07:55:13.483Z,1.70
2022-08-12T07:57:59.364Z,2.50
2022-08-12T08:00:30.576Z,1.83
2022-08-12T08:02:59.492Z,1.50
2022-08-12T08:05:39.577Z,1.90
2022-08-12T08:08:22.924Z,1.77
2022-08-12T08:10:53.158Z,1.80
2022-08-12T08:13:20.681Z,1.77
2022-08-12T08:16:04.131Z,1.60
2022-08-12T08:18:33.347Z,1.40
2022-08-12T08:21:00.440Z,2.27
2022-08-12T08:23:46.946Z,2.03
2022-08-12T08:26:25.020Z,1.87
2022-08-12T08:28:53.149Z,2.00
2022-08-12T08:31:21.664Z,1.93
2022-08-12T08:34:09.344Z,1.93
2022-08-12T08:36:35.876Z,1.70
2022-08-12T08:39:04.582Z,1.63
2022-08-12T08:42:17.367Z,1.70
2022-08-12T08:44:38.409Z,1.30
2022-08-12T08:47:08.020Z,1.70
2022-08-12T08:49:37.301Z,2.20
2022-08-12T08:52:09.932Z,1.47
2022-08-12T08:54:38.015Z,1.57
2022-08-12T08:57:08.451Z,1.70
2022-08-12T08:59:36.572Z,1.70
2022-08-12T09:02:03.961Z,1.87
2022-08-12T09:05:11.484Z,2.03
2022-08-12T09:07:51.466Z,1.60
2022-08-12T09:10:23.366Z,1.50
2022-08-12T09:16:02.693Z,1.43
2022-08-12T09:21:18.795Z,1.37
2022-08-12T09:24:00.217Z,1.40
2022-08-12T09:26:38.065Z,1.77
2022-08-12T09:29:12.061Z,1.80
2022-08-12T09:32:07.378Z,1.87
2022-08-12T09:34:34.091Z,1.33
2022-08-12T09:37:19.553Z,1.83
2022-08-12T09:40:01.326Z,1.77
2022-08-12T09:43:16.153Z,1.70
2022-08-12T09:46:11.333Z,1.70
2022-08-12T09:48:36.164Z,2.10
2022-08-12T09:51:16.569Z,1.50
2022-08-12T09:53:45.750Z,2.40
2022-08-12T09:57:00.231Z,2.07
2022-08-12T10:00:17.239Z,2.07
2022-08-12T10:02:45.342Z,2.10
2022-08-12T10:04:57.967Z,1.90
2022-08-12T10:07:25.404Z,1.90
2022-08-12T10:09:58.470Z,1.83
2022-08-12T10:13:06.451Z,2.13
2022-08-12T10:16:02.480Z,1.70
2022-08-12T10:18:19.723Z,2.30
2022-08-12T10:20:46.669Z,2.13
2022-08-12T10:23:13.643Z,1.60
2022-08-12T10:26:35.000Z,1.80
2022-08-12T10:30:37.716Z,1.60
2022-08-12T10:32:20.515Z,1.67
2022-08-12T10:34:53.256Z,1.87
2022-08-12T10:38:34.382Z,1.60
2022-08-12T10:40:19.009Z,1.77
2022-08-12T10:43:05.833Z,1.80
2022-08-12T10:45:33.227Z,1.30
2022-08-12T10:48:20.546Z,1.33
2022-08-12T10:50:58.463Z,1.70
2022-08-12T10:53:46.004Z,1.57
2022-08-12T10:56:18.444Z,1.90
2022-08-12T10:58:47.712Z,2.70
2022-08-12T11:04:14.722Z,1.60
2022-08-12T11:04:24.694Z,1.40
2022-08-12T11:07:05.240Z,1.47
2022-08-12T11:09:56.441Z,1.47
2022-08-12T11:12:55.657Z,1.37
2022-08-12T11:15:21.325Z,1.60
2022-08-12T11:17:55.616Z,1.63
2022-08-12T11:20:29.029Z,1.23
2022-08-12T11:23:03.840Z,1.53
2022-08-12T11:25:36.018Z,1.40
2022-08-12T11:28:34.085Z,1.10
2022-08-12T11:31:05.242Z,1.03
2022-08-12T11:34:05.620Z,1.30
2022-08-12T11:36:22.131Z,1.40
2022-08-12T11:38:51.427Z,1.43
2022-08-12T11:41:31.246Z,1.10
2022-08-12T11:44:34.952Z,1.00
2022-08-12T11:46:53.049Z,1.27
2022-08-12T11:49:31.047Z,1.10
2022-08-12T11:52:04.092Z,1.20
2022-08-12T11:54:33.515Z,1.00
2022-08-12T11:57:03.032Z,1.00
2022-08-12T12:02:36.105Z,0.90
2022-08-12T12:05:04.147Z,0.90
2022-08-12T12:07:33.984Z,0.90
2022-08-12T12:10:21.130Z,1.10
2022-08-12T12:12:50.157Z,0.90
2022-08-12T12:15:25.368Z,0.97
2022-08-12T12:18:06.098Z,0.90
2022-08-12T12:20:35.135Z,1.13
2022-08-12T12:23:03.309Z,1.37
2022-08-12T12:26:06.189Z,1.20
2022-08-12T12:28:37.011Z,1.77
2022-08-12T12:31:05.651Z,1.23
2022-08-12T12:33:57.491Z,1.70
2022-08-12T12:36:29.960Z,1.27
2022-08-12T12:38:58.194Z,1.20
2022-08-12T12:42:43.855Z,1.23
2022-08-12T12:44:25.689Z,1.30
2022-08-12T12:47:01.857Z,1.13
2022-08-12T12:49:28.831Z,1.30
2022-08-12T12:52:19.037Z,1.57
2022-08-12T12:54:52.974Z,1.30
2022-08-12T12:57:21.603Z,1.13
2022-08-12T13:00:16.748Z,1.10
2022-08-12T13:02:57.031Z,1.83
2022-08-12T13:05:42.770Z,1.10
2022-08-12T13:08:35.872Z,1.20
2022-08-12T13:11:06.518Z,1.10
2022-08-12T13:14:10.504Z,1.37
2022-08-12T13:16:26.802Z,1.30
2022-08-12T13:18:54.281Z,1.30
2022-08-12T13:21:33.409Z,1.50
2022-08-12T13:24:10.081Z,1.40
2022-08-12T13:26:40.363Z,1.40
2022-08-12T13:29:11.155Z,1.53
2022-08-12T13:31:46.379Z,1.63
2022-08-12T13:34:33.152Z,1.30
2022-08-12T13:37:09.784Z,1.70
2022-08-12T13:39:38.959Z,1.47
2022-08-12T13:42:14.261Z,1.67
2022-08-12T13:44:43.240Z,1.80
2022-08-12T13:47:18.579Z,1.90
2022-08-12T13:49:55.487Z,1.73
2022-08-12T13:52:23.906Z,1.83
2022-08-12T13:54:54.186Z,1.40
2022-08-12T13:57:26.628Z,2.33
2022-08-12T14:00:00.322Z,1.60
2022-08-12T14:02:27.929Z,1.80
2022-08-12T14:04:56.508Z,2.10
2022-08-12T14:07:26.132Z,1.63
2022-08-12T14:10:12.580Z,1.80
2022-08-12T14:12:54.348Z,1.83
2022-08-12T14:15:36.926Z,1.70
2022-08-12T14:18:17.308Z,2.00
2022-08-12T14:20:51.745Z,1.87
2022-08-12T14:24:07.927Z,2.20
2022-08-12T14:26:17.098Z,1.80
2022-08-12T14:28:57.624Z,1.77
2022-08-12T14:31:31.974Z,2.00
2022-08-12T14:33:59.996Z,1.67
2022-08-12T14:36:32.004Z,1.80
2022-08-12T14:38:59.255Z,1.60
2022-08-12T14:41:36.924Z,1.43
2022-08-12T14:44:59.202Z,1.67
2022-08-12T14:47:07.705Z,1.57
2022-08-12T14:50:34.694Z,2.23
2022-08-12T14:53:42.402Z,2.27
2022-08-12T14:58:02.324Z,1.67
2022-08-12T15:00:52.127Z,1.80
2022-08-12T15:03:26.285Z,1.70
2022-08-12T15:06:44.224Z,1.67
2022-08-12T15:09:12.033Z,1.70
2022-08-12T15:11:48.737Z,1.40
2022-08-12T15:14:27.573Z,1.57
2022-08-12T15:17:00.649Z,1.60
2022-08-12T15:20:11.929Z,1.50
2022-08-12T15:22:38.734Z,1.60
2022-08-12T15:25:07.700Z,1.43
2022-08-12T15:28:04.354Z,1.60
2022-08-12T15:30:32.049Z,1.43
2022-08-12T15:32:59.629Z,1.50
2022-08-12T15:35:38.331Z,1.70
2022-08-12T15:38:19.653Z,1.50
2022-08-12T15:40:51.435Z,1.50
2022-08-12T15:43:51.658Z,1.50
2022-08-12T15:46:14.832Z,1.77
2022-08-12T15:48:47.481Z,1.77
2022-08-12T15:51:58.402Z,1.60
2022-08-12T15:54:33.250Z,1.57
2022-08-12T15:57:08.033Z,1.50
2022-08-12T16:00:00.758Z,1.50
2022-08-12T16:02:29.899Z,1.50
2022-08-12T16:04:58.749Z,1.73
2022-08-12T16:07:32.590Z,1.40
2022-08-12T16:10:08.503Z,1.60
2022-08-12T16:12:43.190Z,1.60
2022-08-12T16:15:13.674Z,1.70
2022-08-12T16:18:19.536Z,1.77
2022-08-12T16:20:33.555Z,1.70
2022-08-12T16:23:14.912Z,1.77
2022-08-12T16:26:05.751Z,1.37
2022-08-12T16:28:33.976Z,1.53
2022-08-12T16:31:02.203Z,2.20
2022-08-12T16:33:58.720Z,1.63
2022-08-12T16:36:26.178Z,1.67
2022-08-12T16:38:53.108Z,1.83
2022-08-12T16:41:20.214Z,1.47
2022-08-12T16:43:47.888Z,1.47
2022-08-12T16:46:31.570Z,1.63
2022-08-12T16:49:09.135Z,1.50
2022-08-12T16:51:46.416Z,1.23
2022-08-12T16:54:26.702Z,1.77
2022-08-12T16:57:05.793Z,1.33
2022-08-12T16:59:53.565Z,1.20
2022-08-12T17:02:33.346Z,1.07
2022-08-12T17:05:07.151Z,1.27
2022-08-12T17:07:43.530Z,1.57
2022-08-12T17:10:18.531Z,1.20
2022-08-12T17:13:10.214Z,1.07
2022-08-12T17:15:56.809Z,1.30
2022-08-12T17:18:43.001Z,1.20
2022-08-12T17:21:17.505Z,1.63
2022-08-12T17:23:53.389Z,1.40
2022-08-12T17:26:28.377Z,1.50
2022-08-12T17:29:03.066Z,1.30
2022-08-12T17:32:00.141Z,1.60
2022-08-12T17:34:38.565Z,1.10
2022-08-12T17:37:06.545Z,1.37
2022-08-12T17:40:15.690Z,1.23
2022-08-12T17:42:34.503Z,1.20
2022-08-12T17:45:17.748Z,1.40
2022-08-12T17:48:05.248Z,1.10
2022-08-12T17:50:42.836Z,1.47
2022-08-12T17:53:10.903Z,1.20
2022-08-12T17:55:48.080Z,1.30
2022-08-12T17:58:35.681Z,1.30
2022-08-12T18:01:11.554Z,1.17
2022-08-12T18:04:04.939Z,1.37
2022-08-12T18:06:28.932Z,1.53
2022-08-12T18:09:09.574Z,1.30
2022-08-12T18:12:04.216Z,1.10
2022-08-12T18:14:37.171Z,1.47
2022-08-12T18:17:08.584Z,1.40
2022-08-12T18:20:04.974Z,1.13
2022-08-12T18:22:30.391Z,1.50
2022-08-12T18:25:04.745Z,1.50
2022-08-12T18:27:44.366Z,1.27
2022-08-12T18:30:20.912Z,2.23
2022-08-12T18:33:04.993Z,1.23
2022-08-12T18:35:47.885Z,1.50
2022-08-12T18:38:25.305Z,1.47
2022-08-12T18:41:20.747Z,1.60
2022-08-12T18:44:02.651Z,1.30
2022-08-12T18:46:56.824Z,1.30
2022-08-12T18:49:39.257Z,1.70
2022-08-12T18:52:08.628Z,1.67
2022-08-12T18:54:53.396Z,1.20
2022-08-12T18:57:46.012Z,1.60
2022-08-12T19:00:21.392Z,1.70
2022-08-12T19:02:53.039Z,1.90
2022-08-12T19:05:21.177Z,1.50
2022-08-12T19:08:00.532Z,1.93
2022-08-12T19:10:31.945Z,2.20
2022-08-12T19:13:23.416Z,1.83
2022-08-12T19:15:57.386Z,2.50
2022-08-12T19:18:30.225Z,1.77
2022-08-12T19:21:06.677Z,1.90
2022-08-12T19:23:42.845Z,1.60
2022-08-12T19:26:12.532Z,1.67
2022-08-12T19:28:40.610Z,1.97
2022-08-12T19:31:44.803Z,1.57
2022-08-12T19:38:02.830Z,1.80
2022-08-12T19:40:31.435Z,1.53
2022-08-12T19:43:22.073Z,1.83
2022-08-12T19:45:56.732Z,1.93
2022-08-12T19:48:33.029Z,2.90
2022-08-12T19:51:08.900Z,2.50
2022-08-12T19:53:56.774Z,2.23
2022-08-12T19:56:25.487Z,2.47
2022-08-12T19:58:54.326Z,2.40
2022-08-12T20:01:21.742Z,1.97
2022-08-12T20:03:57.584Z,2.40
2022-08-12T20:06:29.244Z,2.20
2022-08-12T20:08:57.900Z,2.33
2022-08-12T20:12:09.181Z,2.50
2022-08-12T20:14:17.816Z,2.47
2022-08-12T20:16:52.685Z,2.23
2022-08-12T20:19:28.520Z,2.17
2022-08-12T20:22:24.837Z,2.07
2022-08-12T20:25:00.955Z,1.80
2022-08-12T20:28:04.218Z,1.93
2022-08-12T20:30:37.378Z,2.40
2022-08-12T20:33:18.848Z,2.67
2022-08-12T20:36:13.424Z,2.63
2022-08-12T20:38:40.143Z,1.63
2022-08-12T20:41:17.599Z,2.00
2022-08-12T20:43:49.550Z,2.53
2022-08-12T20:46:19.386Z,2.07
2022-08-12T20:48:55.368Z,2.20
2022-08-12T20:51:50.869Z,2.40
2022-08-12T20:54:18.629Z,2.53
2022-08-12T20:56:47.301Z,2.83
2022-08-12T20:59:20.241Z,2.30
2022-08-12T21:01:49.369Z,2.37
2022-08-12T21:04:40.717Z,2.37
2022-08-12T21:07:14.319Z,2.47
2022-08-12T21:09:53.107Z,2.47
2022-08-12T21:12:30.987Z,2.47
2022-08-12T21:15:16.943Z,2.40
2022-08-12T21:18:15.542Z,2.37
2022-08-12T21:20:54.338Z,2.60
2022-08-12T21:23:23.680Z,3.00
2022-08-12T21:25:56.406Z,1.93
2022-08-12T21:28:30.870Z,2.27
2022-08-12T21:32:34.685Z,2.30
2022-08-12T21:34:07.205Z,1.73
2022-08-12T21:36:39.787Z,2.70
2022-08-12T21:39:19.002Z,2.30
2022-08-12T21:41:53.185Z,2.00
2022-08-12T21:45:45.601Z,2.60
2022-08-12T21:47:21.332Z,2.30
2022-08-12T21:50:04.033Z,2.40
2022-08-12T21:52:40.712Z,2.40
2022-08-12T21:55:18.495Z,2.43
2022-08-12T21:57:54.731Z,3.03
2022-08-12T22:00:34.307Z,3.20
2022-08-12T22:04:03.351Z,2.80
2022-08-12T22:06:30.654Z,2.27
2022-08-12T22:09:16.063Z,2.80
2022-08-12T22:11:59.311Z,2.40
2022-08-12T22:14:29.220Z,2.87
2022-08-12T22:17:00.585Z,2.40
2022-08-12T22:19:28.199Z,3.10
2022-08-12T22:21:58.461Z,2.47
2022-08-12T22:24:29.629Z,2.70
2022-08-12T22:27:18.109Z,3.03
2022-08-12T22:30:17.054Z,3.00
2022-08-12T22:32:49.911Z,2.60
2022-08-12T22:35:56.262Z,3.50
2022-08-12T22:38:26.665Z,2.67
2022-08-12T22:41:27.662Z,3.10
2022-08-12T22:44:15.731Z,2.93
2022-08-12T22:46:54.240Z,2.93
2022-08-12T22:49:37.291Z,2.80
2022-08-12T22:52:18.732Z,3.77
2022-08-12T22:55:00.230Z,3.30
2022-08-12T22:57:49.816Z,3.03
2022-08-12T23:00:24.221Z,3.33
2022-08-12T23:03:00.510Z,3.23
2022-08-12T23:05:36.884Z,3.20
2022-08-12T23:08:29.974Z,3.60
2022-08-12T23:11:04.675Z,3.60
2022-08-12T23:13:54.771Z,2.90
2022-08-12T23:16:33.404Z,3.40
2022-08-12T23:19:23.177Z,3.30
2022-08-12T23:22:36.901Z,3.90
2022-08-12T23:24:56.922Z,3.50
2022-08-12T23:27:51.583Z,3.47
2022-08-12T23:30:32.089Z,3.27
2022-08-12T23:33:04.879Z,3.10
2022-08-12T23:35:45.968Z,3.67
2022-08-12T23:38:31.358Z,3.07
2022-08-12T23:41:02.600Z,4.13
2022-08-12T23:43:42.821Z,3.30
2022-08-12T23:46:18.599Z,3.17
2022-08-12T23:48:52.050Z,3.57
2022-08-12T23:51:25.474Z,4.10
2022-08-12T23:54:00.258Z,3.80
2022-08-12T23:56:33.909Z,3.67
2022-08-12T23:59:09.422Z,3.83
